sensor_id;sensor_type;location;lat;lon;timestamp;temperature;humidity
37702;DHT22;23548;51.196;6.838;2022-10-31T00:02:00;12.80;99.90
37702;DHT22;23548;51.196;6.838;2022-10-31T00:04:26;12.70;99.90
37702;DHT22;23548;51.196;6.838;2022-10-31T00:06:52;12.70;99.90
37702;DHT22;23548;51.196;6.838;2022-10-31T00:09:18;12.70;99.90
37702;DHT22;23548;51.196;6.838;2022-10-31T00:11:44;12.60;99.90
37702;DHT22;23548;51.196;6.838;2022-10-31T00:14:09;12.50;99.90
37702;DHT22;23548;51.196;6.838;2022-10-31T00:16:35;12.50;99.90
37702;DHT22;23548;51.196;6.838;2022-10-31T00:19:03;12.50;99.90
37702;DHT22;23548;51.196;6.838;2022-10-31T00:21:30;12.50;99.90
37702;DHT22;23548;51.196;6.838;2022-10-31T00:23:57;12.40;99.90
37702;DHT22;23548;51.196;6.838;2022-10-31T00:26:24;12.40;99.90
37702;DHT22;23548;51.196;6.838;2022-10-31T00:28:49;12.40;99.90
37702;DHT22;23548;51.196;6.838;2022-10-31T00:31:16;12.50;99.90
37702;DHT22;23548;51.196;6.838;2022-10-31T00:33:42;12.50;99.90
37702;DHT22;23548;51.196;6.838;2022-10-31T00:36:15;12.50;99.90
37702;DHT22;23548;51.196;6.838;2022-10-31T00:38:42;12.60;99.90
37702;DHT22;23548;51.196;6.838;2022-10-31T00:41:08;12.60;99.90
37702;DHT22;23548;51.196;6.838;2022-10-31T00:43:34;12.60;99.90
37702;DHT22;23548;51.196;6.838;2022-10-31T00:46:00;12.70;99.90
37702;DHT22;23548;51.196;6.838;2022-10-31T00:48:26;12.70;99.90
37702;DHT22;23548;51.196;6.838;2022-10-31T00:50:51;12.80;99.90
37702;DHT22;23548;51.196;6.838;2022-10-31T00:53:17;12.70;99.90
37702;DHT22;23548;51.196;6.838;2022-10-31T00:55:43;12.70;99.90
37702;DHT22;23548;51.196;6.838;2022-10-31T00:58:08;12.70;99.90
37702;DHT22;23548;51.196;6.838;2022-10-31T01:00:34;12.80;99.90
37702;DHT22;23548;51.196;6.838;2022-10-31T01:03:00;13.00;99.90
37702;DHT22;23548;51.196;6.838;2022-10-31T01:05:26;13.10;99.90
37702;DHT22;23548;51.196;6.838;2022-10-31T01:07:52;13.20;99.90
37702;DHT22;23548;51.196;6.838;2022-10-31T01:10:18;13.20;99.90
37702;DHT22;23548;51.196;6.838;2022-10-31T01:12:46;13.20;99.90
37702;DHT22;23548;51.196;6.838;2022-10-31T01:15:13;13.10;99.90
37702;DHT22;23548;51.196;6.838;2022-10-31T01:17:39;12.90;99.90
37702;DHT22;23548;51.196;6.838;2022-10-31T01:20:06;12.90;99.90
37702;DHT22;23548;51.196;6.838;2022-10-31T01:22:33;12.70;99.90
37702;DHT22;23548;51.196;6.838;2022-10-31T01:24:58;12.70;99.90
37702;DHT22;23548;51.196;6.838;2022-10-31T01:27:24;12.70;99.90
37702;DHT22;23548;51.196;6.838;2022-10-31T01:29:50;12.50;99.90
37702;DHT22;23548;51.196;6.838;2022-10-31T01:32:16;12.50;99.90
37702;DHT22;23548;51.196;6.838;2022-10-31T01:34:41;12.50;99.90
37702;DHT22;23548;51.196;6.838;2022-10-31T01:37:07;12.50;99.90
37702;DHT22;23548;51.196;6.838;2022-10-31T01:39:33;12.40;99.90
37702;DHT22;23548;51.196;6.838;2022-10-31T01:41:59;12.40;99.90
37702;DHT22;23548;51.196;6.838;2022-10-31T01:46:53;12.40;99.90
37702;DHT22;23548;51.196;6.838;2022-10-31T01:52:06;12.30;99.90
37702;DHT22;23548;51.196;6.838;2022-10-31T01:54:36;12.30;99.90
37702;DHT22;23548;51.196;6.838;2022-10-31T01:57:04;12.30;99.90
37702;DHT22;23548;51.196;6.838;2022-10-31T01:59:33;12.30;99.90
37702;DHT22;23548;51.196;6.838;2022-10-31T02:02:00;12.30;99.90
37702;DHT22;23548;51.196;6.838;2022-10-31T02:04:26;12.30;99.90
37702;DHT22;23548;51.196;6.838;2022-10-31T02:07:03;12.30;99.90
37702;DHT22;23548;51.196;6.838;2022-10-31T02:09:34;12.20;99.90
37702;DHT22;23548;51.196;6.838;2022-10-31T02:12:01;12.20;99.90
37702;DHT22;23548;51.196;6.838;2022-10-31T02:14:29;12.10;99.90
37702;DHT22;23548;51.196;6.838;2022-10-31T02:16:56;12.10;99.90
37702;DHT22;23548;51.196;6.838;2022-10-31T02:19:34;12.10;99.90
37702;DHT22;23548;51.196;6.838;2022-10-31T02:38:18;12.20;99.90
37702;DHT22;23548;51.196;6.838;2022-10-31T02:40:49;12.10;99.90
37702;DHT22;23548;51.196;6.838;2022-10-31T02:46:48;12.20;99.90
37702;DHT22;23548;51.196;6.838;2022-10-31T02:49:26;12.30;99.90
37702;DHT22;23548;51.196;6.838;2022-10-31T02:51:53;12.40;99.90
37702;DHT22;23548;51.196;6.838;2022-10-31T02:54:24;12.50;99.90
37702;DHT22;23548;51.196;6.838;2022-10-31T02:56:53;12.60;99.90
37702;DHT22;23548;51.196;6.838;2022-10-31T02:59:21;12.70;99.90
37702;DHT22;23548;51.196;6.838;2022-10-31T03:02:16;12.70;99.90
37702;DHT22;23548;51.196;6.838;2022-10-31T03:05:04;12.70;99.90
37702;DHT22;23548;51.196;6.838;2022-10-31T03:08:21;12.60;99.90
37702;DHT22;23548;51.196;6.838;2022-10-31T03:11:06;12.60;99.90
37702;DHT22;23548;51.196;6.838;2022-10-31T03:13:39;12.60;99.90
37702;DHT22;23548;51.196;6.838;2022-10-31T03:18:53;12.50;99.90
37702;DHT22;23548;51.196;6.838;2022-10-31T03:21:28;12.50;99.90
37702;DHT22;23548;51.196;6.838;2022-10-31T03:23:56;12.40;99.90
37702;DHT22;23548;51.196;6.838;2022-10-31T03:26:24;12.40;99.90
37702;DHT22;23548;51.196;6.838;2022-10-31T03:28:57;12.40;99.90
37702;DHT22;23548;51.196;6.838;2022-10-31T03:31:27;12.40;99.90
37702;DHT22;23548;51.196;6.838;2022-10-31T03:33:56;12.40;99.90
37702;DHT22;23548;51.196;6.838;2022-10-31T03:36:24;12.40;99.90
37702;DHT22;23548;51.196;6.838;2022-10-31T03:38:51;12.50;99.90
37702;DHT22;23548;51.196;6.838;2022-10-31T03:41:23;12.50;99.90
37702;DHT22;23548;51.196;6.838;2022-10-31T03:43:57;12.40;99.90
37702;DHT22;23548;51.196;6.838;2022-10-31T03:46:24;12.50;99.90
37702;DHT22;23548;51.196;6.838;2022-10-31T03:48:50;12.50;99.90
37702;DHT22;23548;51.196;6.838;2022-10-31T03:51:25;12.30;99.90
37702;DHT22;23548;51.196;6.838;2022-10-31T03:56:43;12.20;99.90
37702;DHT22;23548;51.196;6.838;2022-10-31T03:59:33;12.20;99.90
37702;DHT22;23548;51.196;6.838;2022-10-31T04:02:07;12.10;99.90
37702;DHT22;23548;51.196;6.838;2022-10-31T04:04:37;12.10;99.90
37702;DHT22;23548;51.196;6.838;2022-10-31T04:07:04;12.20;99.90
37702;DHT22;23548;51.196;6.838;2022-10-31T04:09:33;12.20;99.90
37702;DHT22;23548;51.196;6.838;2022-10-31T04:12:02;12.20;99.90
37702;DHT22;23548;51.196;6.838;2022-10-31T04:14:31;12.30;99.90
37702;DHT22;23548;51.196;6.838;2022-10-31T04:16:58;12.20;99.90
37702;DHT22;23548;51.196;6.838;2022-10-31T04:19:25;12.20;99.90
37702;DHT22;23548;51.196;6.838;2022-10-31T04:21:50;12.20;99.90
37702;DHT22;23548;51.196;6.838;2022-10-31T04:24:16;12.20;99.90
37702;DHT22;23548;51.196;6.838;2022-10-31T04:26:42;12.20;99.90
37702;DHT22;23548;51.196;6.838;2022-10-31T04:29:07;12.20;99.90
37702;DHT22;23548;51.196;6.838;2022-10-31T04:31:33;12.10;99.90
37702;DHT22;23548;51.196;6.838;2022-10-31T04:33:59;12.00;99.90
37702;DHT22;23548;51.196;6.838;2022-10-31T04:36:24;12.00;99.90
37702;DHT22;23548;51.196;6.838;2022-10-31T04:38:50;12.00;99.90
37702;DHT22;23548;51.196;6.838;2022-10-31T04:41:16;11.90;99.90
37702;DHT22;23548;51.196;6.838;2022-10-31T04:43:42;12.00;99.90
37702;DHT22;23548;51.196;6.838;2022-10-31T04:46:07;12.00;99.90
37702;DHT22;23548;51.196;6.838;2022-10-31T04:48:33;12.00;99.90
37702;DHT22;23548;51.196;6.838;2022-10-31T04:51:03;12.00;99.90
37702;DHT22;23548;51.196;6.838;2022-10-31T04:53:28;12.00;99.90
37702;DHT22;23548;51.196;6.838;2022-10-31T04:55:55;11.90;99.90
37702;DHT22;23548;51.196;6.838;2022-10-31T04:58:22;11.90;99.90
37702;DHT22;23548;51.196;6.838;2022-10-31T05:00:52;11.80;99.90
37702;DHT22;23548;51.196;6.838;2022-10-31T05:03:18;11.90;99.90
37702;DHT22;23548;51.196;6.838;2022-10-31T05:05:44;11.80;99.90
37702;DHT22;23548;51.196;6.838;2022-10-31T05:08:10;11.70;99.90
37702;DHT22;23548;51.196;6.838;2022-10-31T05:10:36;11.80;99.90
37702;DHT22;23548;51.196;6.838;2022-10-31T05:13:03;11.80;99.90
37702;DHT22;23548;51.196;6.838;2022-10-31T05:15:29;11.80;99.90
37702;DHT22;23548;51.196;6.838;2022-10-31T05:17:55;11.80;99.90
37702;DHT22;23548;51.196;6.838;2022-10-31T05:20:23;11.80;99.90
37702;DHT22;23548;51.196;6.838;2022-10-31T05:22:53;11.70;99.90
37702;DHT22;23548;51.196;6.838;2022-10-31T05:25:21;11.80;99.90
37702;DHT22;23548;51.196;6.838;2022-10-31T05:27:48;11.70;99.90
37702;DHT22;23548;51.196;6.838;2022-10-31T05:30:18;11.70;99.90
37702;DHT22;23548;51.196;6.838;2022-10-31T05:32:46;11.70;99.90
37702;DHT22;23548;51.196;6.838;2022-10-31T05:35:15;11.70;99.90
37702;DHT22;23548;51.196;6.838;2022-10-31T05:37:42;11.70;99.90
37702;DHT22;23548;51.196;6.838;2022-10-31T05:40:10;11.80;99.90
37702;DHT22;23548;51.196;6.838;2022-10-31T05:42:38;11.80;99.90
37702;DHT22;23548;51.196;6.838;2022-10-31T05:45:06;11.80;99.90
37702;DHT22;23548;51.196;6.838;2022-10-31T05:47:32;11.70;99.90
37702;DHT22;23548;51.196;6.838;2022-10-31T05:49:57;11.70;99.90
37702;DHT22;23548;51.196;6.838;2022-10-31T05:52:23;11.70;99.90
37702;DHT22;23548;51.196;6.838;2022-10-31T05:54:49;11.70;99.90
37702;DHT22;23548;51.196;6.838;2022-10-31T05:57:14;11.70;99.90
37702;DHT22;23548;51.196;6.838;2022-10-31T05:59:40;11.70;99.90
37702;DHT22;23548;51.196;6.838;2022-10-31T06:02:06;11.70;99.90
37702;DHT22;23548;51.196;6.838;2022-10-31T06:04:31;11.70;99.90
37702;DHT22;23548;51.196;6.838;2022-10-31T06:06:57;11.60;99.90
37702;DHT22;23548;51.196;6.838;2022-10-31T06:09:23;11.60;99.90
37702;DHT22;23548;51.196;6.838;2022-10-31T06:11:49;11.70;99.90
37702;DHT22;23548;51.196;6.838;2022-10-31T06:14:15;11.70;99.90
37702;DHT22;23548;51.196;6.838;2022-10-31T06:16:40;11.70;99.90
37702;DHT22;23548;51.196;6.838;2022-10-31T06:19:06;11.60;99.90
37702;DHT22;23548;51.196;6.838;2022-10-31T06:21:32;11.50;99.90
37702;DHT22;23548;51.196;6.838;2022-10-31T06:23:58;11.60;99.90
37702;DHT22;23548;51.196;6.838;2022-10-31T06:26:23;11.60;99.90
37702;DHT22;23548;51.196;6.838;2022-10-31T06:28:49;11.60;99.90
37702;DHT22;23548;51.196;6.838;2022-10-31T06:31:15;11.70;99.90
37702;DHT22;23548;51.196;6.838;2022-10-31T06:33:43;11.70;99.90
37702;DHT22;23548;51.196;6.838;2022-10-31T06:36:09;11.80;99.90
37702;DHT22;23548;51.196;6.838;2022-10-31T06:38:35;11.70;99.90
37702;DHT22;23548;51.196;6.838;2022-10-31T06:41:05;11.70;99.90
37702;DHT22;23548;51.196;6.838;2022-10-31T06:43:31;11.60;99.90
37702;DHT22;23548;51.196;6.838;2022-10-31T06:45:57;11.50;99.90
37702;DHT22;23548;51.196;6.838;2022-10-31T06:48:23;11.60;99.90
37702;DHT22;23548;51.196;6.838;2022-10-31T06:50:49;11.50;99.90
37702;DHT22;23548;51.196;6.838;2022-10-31T06:53:15;11.40;99.90
37702;DHT22;23548;51.196;6.838;2022-10-31T06:55:41;11.40;99.90
37702;DHT22;23548;51.196;6.838;2022-10-31T06:58:09;11.50;99.90
37702;DHT22;23548;51.196;6.838;2022-10-31T07:00:35;11.60;99.90
37702;DHT22;23548;51.196;6.838;2022-10-31T07:03:03;11.70;99.90
37702;DHT22;23548;51.196;6.838;2022-10-31T07:05:30;11.70;99.90
37702;DHT22;23548;51.196;6.838;2022-10-31T07:08:01;11.80;99.90
37702;DHT22;23548;51.196;6.838;2022-10-31T07:10:29;11.90;99.90
37702;DHT22;23548;51.196;6.838;2022-10-31T07:13:00;11.90;99.90
37702;DHT22;23548;51.196;6.838;2022-10-31T07:15:28;12.00;99.90
37702;DHT22;23548;51.196;6.838;2022-10-31T07:17:54;12.00;99.90
37702;DHT22;23548;51.196;6.838;2022-10-31T07:20:24;12.10;99.90
37702;DHT22;23548;51.196;6.838;2022-10-31T07:22:50;12.10;99.90
37702;DHT22;23548;51.196;6.838;2022-10-31T07:25:16;12.10;99.90
37702;DHT22;23548;51.196;6.838;2022-10-31T07:27:42;12.10;99.90
37702;DHT22;23548;51.196;6.838;2022-10-31T07:30:09;12.20;99.90
37702;DHT22;23548;51.196;6.838;2022-10-31T07:32:40;12.20;99.90
37702;DHT22;23548;51.196;6.838;2022-10-31T07:35:11;12.20;99.90
37702;DHT22;23548;51.196;6.838;2022-10-31T07:37:39;12.30;99.90
37702;DHT22;23548;51.196;6.838;2022-10-31T07:40:06;12.30;99.90
37702;DHT22;23548;51.196;6.838;2022-10-31T07:42:40;12.40;99.90
37702;DHT22;23548;51.196;6.838;2022-10-31T07:45:08;12.40;99.90
37702;DHT22;23548;51.196;6.838;2022-10-31T07:47:44;12.50;99.90
37702;DHT22;23548;51.196;6.838;2022-10-31T07:50:16;12.50;99.90
37702;DHT22;23548;51.196;6.838;2022-10-31T07:52:42;12.50;99.90
37702;DHT22;23548;51.196;6.838;2022-10-31T07:55:08;12.60;99.90
37702;DHT22;23548;51.196;6.838;2022-10-31T07:57:34;12.70;99.90
37702;DHT22;23548;51.196;6.838;2022-10-31T08:00:03;12.80;99.90
37702;DHT22;23548;51.196;6.838;2022-10-31T08:02:29;13.00;99.90
37702;DHT22;23548;51.196;6.838;2022-10-31T08:04:55;13.00;99.90
37702;DHT22;23548;51.196;6.838;2022-10-31T08:07:21;13.10;99.90
37702;DHT22;23548;51.196;6.838;2022-10-31T08:09:46;13.20;99.90
37702;DHT22;23548;51.196;6.838;2022-10-31T08:12:12;13.10;99.90
37702;DHT22;23548;51.196;6.838;2022-10-31T08:14:38;13.20;99.90
37702;DHT22;23548;51.196;6.838;2022-10-31T08:17:03;13.30;99.90
37702;DHT22;23548;51.196;6.838;2022-10-31T08:19:29;13.50;99.90
37702;DHT22;23548;51.196;6.838;2022-10-31T08:21:55;13.60;99.90
37702;DHT22;23548;51.196;6.838;2022-10-31T08:24:21;13.50;99.90
37702;DHT22;23548;51.196;6.838;2022-10-31T08:26:47;13.60;99.90
37702;DHT22;23548;51.196;6.838;2022-10-31T08:29:13;13.70;99.90
37702;DHT22;23548;51.196;6.838;2022-10-31T08:31:40;13.70;99.90
37702;DHT22;23548;51.196;6.838;2022-10-31T08:34:06;13.70;99.90
37702;DHT22;23548;51.196;6.838;2022-10-31T08:36:32;13.80;99.90
37702;DHT22;23548;51.196;6.838;2022-10-31T08:38:58;13.80;99.90
37702;DHT22;23548;51.196;6.838;2022-10-31T08:41:24;13.90;99.90
37702;DHT22;23548;51.196;6.838;2022-10-31T08:43:49;14.10;99.90
37702;DHT22;23548;51.196;6.838;2022-10-31T08:46:15;14.20;99.90
37702;DHT22;23548;51.196;6.838;2022-10-31T08:48:41;14.40;99.90
37702;DHT22;23548;51.196;6.838;2022-10-31T08:51:08;14.50;99.90
37702;DHT22;23548;51.196;6.838;2022-10-31T08:53:35;14.60;99.90
37702;DHT22;23548;51.196;6.838;2022-10-31T08:56:00;14.70;99.90
37702;DHT22;23548;51.196;6.838;2022-10-31T08:58:26;14.70;99.90
37702;DHT22;23548;51.196;6.838;2022-10-31T09:00:53;14.80;99.90
37702;DHT22;23548;51.196;6.838;2022-10-31T09:03:21;14.80;99.90
37702;DHT22;23548;51.196;6.838;2022-10-31T09:05:48;14.90;99.90
37702;DHT22;23548;51.196;6.838;2022-10-31T09:08:15;15.00;99.90
37702;DHT22;23548;51.196;6.838;2022-10-31T09:10:41;15.10;99.90
37702;DHT22;23548;51.196;6.838;2022-10-31T09:13:16;15.20;99.90
37702;DHT22;23548;51.196;6.838;2022-10-31T09:15:43;15.20;99.90
37702;DHT22;23548;51.196;6.838;2022-10-31T09:18:09;15.10;99.90
37702;DHT22;23548;51.196;6.838;2022-10-31T09:20:37;15.30;99.90
37702;DHT22;23548;51.196;6.838;2022-10-31T09:23:05;15.40;99.90
37702;DHT22;23548;51.196;6.838;2022-10-31T09:25:36;15.60;99.90
37702;DHT22;23548;51.196;6.838;2022-10-31T09:28:03;15.80;99.90
37702;DHT22;23548;51.196;6.838;2022-10-31T09:30:31;15.70;99.90
37702;DHT22;23548;51.196;6.838;2022-10-31T09:32:58;15.80;99.90
37702;DHT22;23548;51.196;6.838;2022-10-31T09:35:25;16.00;99.90
37702;DHT22;23548;51.196;6.838;2022-10-31T09:37:58;16.10;99.90
37702;DHT22;23548;51.196;6.838;2022-10-31T09:40:37;16.30;99.90
37702;DHT22;23548;51.196;6.838;2022-10-31T09:43:40;16.30;99.90
37702;DHT22;23548;51.196;6.838;2022-10-31T09:50:02;16.50;99.90
37702;DHT22;23548;51.196;6.838;2022-10-31T09:52:36;16.40;99.90
37702;DHT22;23548;51.196;6.838;2022-10-31T09:57:39;16.40;99.90
37702;DHT22;23548;51.196;6.838;2022-10-31T10:00:15;16.50;99.90
37702;DHT22;23548;51.196;6.838;2022-10-31T10:02:48;16.60;99.90
37702;DHT22;23548;51.196;6.838;2022-10-31T10:08:23;16.50;99.90
37702;DHT22;23548;51.196;6.838;2022-10-31T10:24:30;17.00;99.90
37702;DHT22;23548;51.196;6.838;2022-10-31T10:32:24;17.20;99.90
37702;DHT22;23548;51.196;6.838;2022-10-31T10:35:12;17.30;99.90
37702;DHT22;23548;51.196;6.838;2022-10-31T10:37:41;17.50;99.90
37702;DHT22;23548;51.196;6.838;2022-10-31T10:42:38;17.50;99.90
37702;DHT22;23548;51.196;6.838;2022-10-31T10:45:22;17.60;99.90
37702;DHT22;23548;51.196;6.838;2022-10-31T10:48:16;17.70;99.90
37702;DHT22;23548;51.196;6.838;2022-10-31T10:50:50;18.00;99.90
37702;DHT22;23548;51.196;6.838;2022-10-31T10:59:18;18.10;99.90
37702;DHT22;23548;51.196;6.838;2022-10-31T11:01:45;18.20;99.90
37702;DHT22;23548;51.196;6.838;2022-10-31T11:04:35;18.40;99.90
37702;DHT22;23548;51.196;6.838;2022-10-31T11:07:07;18.80;99.90
37702;DHT22;23548;51.196;6.838;2022-10-31T11:09:34;19.10;99.90
37702;DHT22;23548;51.196;6.838;2022-10-31T11:12:05;19.10;99.90
37702;DHT22;23548;51.196;6.838;2022-10-31T11:14:42;19.40;99.90
37702;DHT22;23548;51.196;6.838;2022-10-31T11:17:39;19.60;99.90
37702;DHT22;23548;51.196;6.838;2022-10-31T11:22:42;19.60;99.90
37702;DHT22;23548;51.196;6.838;2022-10-31T11:25:25;19.60;99.90
37702;DHT22;23548;51.196;6.838;2022-10-31T11:28:07;19.40;99.90
37702;DHT22;23548;51.196;6.838;2022-10-31T11:30:52;19.40;99.90
37702;DHT22;23548;51.196;6.838;2022-10-31T11:33:24;19.70;99.90
37702;DHT22;23548;51.196;6.838;2022-10-31T11:35:52;19.80;99.90
37702;DHT22;23548;51.196;6.838;2022-10-31T11:38:21;20.00;99.90
37702;DHT22;23548;51.196;6.838;2022-10-31T11:41:07;20.20;99.90
37702;DHT22;23548;51.196;6.838;2022-10-31T11:43:35;20.40;99.90
37702;DHT22;23548;51.196;6.838;2022-10-31T11:46:09;20.50;99.90
37702;DHT22;23548;51.196;6.838;2022-10-31T11:48:36;20.30;99.90
37702;DHT22;23548;51.196;6.838;2022-10-31T11:51:04;20.10;99.90
37702;DHT22;23548;51.196;6.838;2022-10-31T11:53:33;20.20;99.90
37702;DHT22;23548;51.196;6.838;2022-10-31T11:56:12;20.30;99.90
37702;DHT22;23548;51.196;6.838;2022-10-31T11:58:39;20.20;99.90
37702;DHT22;23548;51.196;6.838;2022-10-31T12:01:05;20.10;99.90
37702;DHT22;23548;51.196;6.838;2022-10-31T12:06:37;20.40;99.90
37702;DHT22;23548;51.196;6.838;2022-10-31T12:09:23;20.50;99.90
37702;DHT22;23548;51.196;6.838;2022-10-31T12:44:15;20.60;99.90
37702;DHT22;23548;51.196;6.838;2022-10-31T12:47:05;20.40;99.90
37702;DHT22;23548;51.196;6.838;2022-10-31T12:52:32;20.30;99.90
37702;DHT22;23548;51.196;6.838;2022-10-31T12:57:51;20.40;99.90
37702;DHT22;23548;51.196;6.838;2022-10-31T13:00:19;20.40;99.90
37702;DHT22;23548;51.196;6.838;2022-10-31T13:02:58;20.10;99.90
37702;DHT22;23548;51.196;6.838;2022-10-31T13:05:46;20.10;99.90
37702;DHT22;23548;51.196;6.838;2022-10-31T13:08:41;20.10;99.90
37702;DHT22;23548;51.196;6.838;2022-10-31T13:14:04;19.90;99.90
37702;DHT22;23548;51.196;6.838;2022-10-31T13:16:37;19.90;99.90
37702;DHT22;23548;51.196;6.838;2022-10-31T13:21:36;19.90;99.90
37702;DHT22;23548;51.196;6.838;2022-10-31T13:24:11;19.90;99.90
37702;DHT22;23548;51.196;6.838;2022-10-31T13:26:45;19.90;99.90
37702;DHT22;23548;51.196;6.838;2022-10-31T13:29:33;19.90;99.90
37702;DHT22;23548;51.196;6.838;2022-10-31T13:32:03;19.90;99.90
37702;DHT22;23548;51.196;6.838;2022-10-31T13:34:42;20.00;99.90
37702;DHT22;23548;51.196;6.838;2022-10-31T13:44:52;20.30;99.90
37702;DHT22;23548;51.196;6.838;2022-10-31T13:47:26;20.30;99.90
37702;DHT22;23548;51.196;6.838;2022-10-31T13:50:14;20.40;99.90
37702;DHT22;23548;51.196;6.838;2022-10-31T13:52:43;20.50;99.90
37702;DHT22;23548;51.196;6.838;2022-10-31T13:55:40;20.40;99.90
37702;DHT22;23548;51.196;6.838;2022-10-31T14:01:29;20.30;99.90
37702;DHT22;23548;51.196;6.838;2022-10-31T14:09:33;20.10;99.90
37702;DHT22;23548;51.196;6.838;2022-10-31T14:12:22;20.10;99.90
37702;DHT22;23548;51.196;6.838;2022-10-31T14:14:54;20.00;99.90
37702;DHT22;23548;51.196;6.838;2022-10-31T14:17:25;20.10;99.90
37702;DHT22;23548;51.196;6.838;2022-10-31T14:20:40;20.00;99.90
37702;DHT22;23548;51.196;6.838;2022-10-31T14:23:31;20.20;99.90
37702;DHT22;23548;51.196;6.838;2022-10-31T14:28:49;20.20;99.90
37702;DHT22;23548;51.196;6.838;2022-10-31T14:33:54;20.10;99.90
37702;DHT22;23548;51.196;6.838;2022-10-31T14:43:10;19.60;99.90
37702;DHT22;23548;51.196;6.838;2022-10-31T14:51:09;19.40;99.90
37702;DHT22;23548;51.196;6.838;2022-10-31T14:56:19;19.50;99.90
37702;DHT22;23548;51.196;6.838;2022-10-31T14:58:47;19.50;99.90
37702;DHT22;23548;51.196;6.838;2022-10-31T15:03:49;19.50;99.90
37702;DHT22;23548;51.196;6.838;2022-10-31T15:06:19;19.40;99.90
37702;DHT22;23548;51.196;6.838;2022-10-31T15:11:23;19.20;99.90
37702;DHT22;23548;51.196;6.838;2022-10-31T15:13:52;19.10;99.90
37702;DHT22;23548;51.196;6.838;2022-10-31T15:16:21;19.00;99.90
37702;DHT22;23548;51.196;6.838;2022-10-31T15:18:56;19.00;99.90
37702;DHT22;23548;51.196;6.838;2022-10-31T15:21:24;18.90;99.90
37702;DHT22;23548;51.196;6.838;2022-10-31T15:23:59;18.90;99.90
37702;DHT22;23548;51.196;6.838;2022-10-31T15:26:40;18.90;99.90
37702;DHT22;23548;51.196;6.838;2022-10-31T15:29:13;18.90;99.90
37702;DHT22;23548;51.196;6.838;2022-10-31T15:31:48;18.90;99.90
37702;DHT22;23548;51.196;6.838;2022-10-31T15:36:58;18.90;99.90
37702;DHT22;23548;51.196;6.838;2022-10-31T15:39:24;18.90;99.90
37702;DHT22;23548;51.196;6.838;2022-10-31T15:41:56;18.80;99.90
37702;DHT22;23548;51.196;6.838;2022-10-31T15:44:35;18.80;99.90
37702;DHT22;23548;51.196;6.838;2022-10-31T15:47:03;18.70;99.90
37702;DHT22;23548;51.196;6.838;2022-10-31T15:49:36;18.60;99.90
37702;DHT22;23548;51.196;6.838;2022-10-31T15:52:12;18.60;99.90
37702;DHT22;23548;51.196;6.838;2022-10-31T15:54:50;18.60;99.90
37702;DHT22;23548;51.196;6.838;2022-10-31T15:57:19;18.50;99.90
37702;DHT22;23548;51.196;6.838;2022-10-31T15:59:47;18.50;99.90
37702;DHT22;23548;51.196;6.838;2022-10-31T16:02:17;18.50;99.90
37702;DHT22;23548;51.196;6.838;2022-10-31T16:07:21;18.40;99.90
37702;DHT22;23548;51.196;6.838;2022-10-31T16:12:21;18.20;99.90
37702;DHT22;23548;51.196;6.838;2022-10-31T16:14:49;18.20;99.90
37702;DHT22;23548;51.196;6.838;2022-10-31T16:17:19;18.20;99.90
37702;DHT22;23548;51.196;6.838;2022-10-31T16:19:58;18.20;99.90
37702;DHT22;23548;51.196;6.838;2022-10-31T16:22:36;18.10;99.90
37702;DHT22;23548;51.196;6.838;2022-10-31T16:25:12;18.10;99.90
37702;DHT22;23548;51.196;6.838;2022-10-31T16:27:48;18.00;99.90
37702;DHT22;23548;51.196;6.838;2022-10-31T16:33:02;17.90;99.90
37702;DHT22;23548;51.196;6.838;2022-10-31T16:35:33;17.90;99.90
37702;DHT22;23548;51.196;6.838;2022-10-31T16:38:00;17.90;99.90
37702;DHT22;23548;51.196;6.838;2022-10-31T16:40:26;17.90;99.90
37702;DHT22;23548;51.196;6.838;2022-10-31T16:42:53;17.80;99.90
37702;DHT22;23548;51.196;6.838;2022-10-31T16:45:22;17.80;99.90
37702;DHT22;23548;51.196;6.838;2022-10-31T16:47:49;17.80;99.90
37702;DHT22;23548;51.196;6.838;2022-10-31T16:50:26;17.80;99.90
37702;DHT22;23548;51.196;6.838;2022-10-31T16:52:53;17.80;99.90
37702;DHT22;23548;51.196;6.838;2022-10-31T16:55:20;17.70;99.90
37702;DHT22;23548;51.196;6.838;2022-10-31T16:57:52;17.70;99.90
37702;DHT22;23548;51.196;6.838;2022-10-31T17:00:28;17.70;99.90
37702;DHT22;23548;51.196;6.838;2022-10-31T17:02:56;17.80;99.90
37702;DHT22;23548;51.196;6.838;2022-10-31T17:05:23;17.80;99.90
37702;DHT22;23548;51.196;6.838;2022-10-31T17:07:56;17.70;99.90
37702;DHT22;23548;51.196;6.838;2022-10-31T17:10:22;17.70;99.90
37702;DHT22;23548;51.196;6.838;2022-10-31T17:12:49;17.70;99.90
37702;DHT22;23548;51.196;6.838;2022-10-31T17:15:24;17.70;99.90
37702;DHT22;23548;51.196;6.838;2022-10-31T17:17:51;17.60;99.90
37702;DHT22;23548;51.196;6.838;2022-10-31T17:20:24;17.60;99.90
37702;DHT22;23548;51.196;6.838;2022-10-31T17:22:50;17.60;99.90
37702;DHT22;23548;51.196;6.838;2022-10-31T17:25:20;17.60;99.90
37702;DHT22;23548;51.196;6.838;2022-10-31T17:27:48;17.60;99.90
37702;DHT22;23548;51.196;6.838;2022-10-31T17:30:14;17.50;99.90
37702;DHT22;23548;51.196;6.838;2022-10-31T17:32:41;17.50;99.90
37702;DHT22;23548;51.196;6.838;2022-10-31T17:35:08;17.50;99.90
37702;DHT22;23548;51.196;6.838;2022-10-31T17:37:35;17.50;99.90
37702;DHT22;23548;51.196;6.838;2022-10-31T17:40:02;17.40;99.90
37702;DHT22;23548;51.196;6.838;2022-10-31T17:42:28;17.40;99.90
37702;DHT22;23548;51.196;6.838;2022-10-31T17:44:54;17.30;99.90
37702;DHT22;23548;51.196;6.838;2022-10-31T17:47:20;17.30;99.90
37702;DHT22;23548;51.196;6.838;2022-10-31T17:49:46;17.30;99.90
37702;DHT22;23548;51.196;6.838;2022-10-31T17:52:12;17.30;99.90
37702;DHT22;23548;51.196;6.838;2022-10-31T17:54:39;17.20;99.90
37702;DHT22;23548;51.196;6.838;2022-10-31T17:57:05;17.20;99.90
37702;DHT22;23548;51.196;6.838;2022-10-31T17:59:30;17.00;99.90
37702;DHT22;23548;51.196;6.838;2022-10-31T18:01:57;16.90;99.90
37702;DHT22;23548;51.196;6.838;2022-10-31T18:04:26;16.90;99.90
37702;DHT22;23548;51.196;6.838;2022-10-31T18:06:53;16.80;99.90
37702;DHT22;23548;51.196;6.838;2022-10-31T18:09:19;16.70;99.90
37702;DHT22;23548;51.196;6.838;2022-10-31T18:11:45;16.60;99.90
37702;DHT22;23548;51.196;6.838;2022-10-31T18:14:12;16.50;99.90
37702;DHT22;23548;51.196;6.838;2022-10-31T18:16:38;16.30;99.90
37702;DHT22;23548;51.196;6.838;2022-10-31T18:19:06;16.30;99.90
37702;DHT22;23548;51.196;6.838;2022-10-31T18:21:32;16.30;99.90
37702;DHT22;23548;51.196;6.838;2022-10-31T18:23:59;16.20;99.90
37702;DHT22;23548;51.196;6.838;2022-10-31T18:26:28;16.00;99.90
37702;DHT22;23548;51.196;6.838;2022-10-31T18:28:56;15.90;99.90
37702;DHT22;23548;51.196;6.838;2022-10-31T18:31:23;15.80;99.90
37702;DHT22;23548;51.196;6.838;2022-10-31T18:33:56;15.80;99.90
37702;DHT22;23548;51.196;6.838;2022-10-31T18:36:25;15.80;99.90